Aérodrome :
LOGIN :

S'inscrire | Disclaimer

   EN    FR    IT 

 










Légende :    VFR   VFR Marginal   IFR   IFR Intensif   IFR Très Intensif
Visi : 
Plafond : 
>= 8 km
>= 3000ft
5 à 8 km
1000 à 3000 ft
1500m à 5 km
500 à 1000 ft
800 à 1500m
200 à 500 ft
< 800m
< 200 ft
Symboles :   Orages  Brouillard  Fortes neiges  Fortes précipitations  Vent > 20 kt
SIGMETs :   Divers  Orages  Givrage  Turbulence  Onde Orograph.  Cendres Volcan.






- Altitude de l'aérodrome : 479 ft
- Code IATA : DOL


LFRG - Deauville

DERNIER METAR :
  • 182100Z AUTO 22013KT 190V260 9999 BKN023/// BKN030/// BKN038/// ///TCU 08/05 Q1021 TEMPO 25025G40KT 2000 +TSRA BKN015CB

METARs EXPIRÉS :
  • 182030Z AUTO 22016KT 9999 BKN029 BKN038 BKN047 08/05 Q1021 TEMPO 25025G40KT 2000 +TSRA BKN015CB
  • 182000Z AUTO 21011KT 180V240 9999 BKN032 OVC039 08/04 Q1021 TEMPO 25025G40KT 2000 +TSRA BKN015CB
  • 181930Z AUTO 22013KT 9999 BKN039 OVC047 08/04 Q1022 TEMPO 25025G40KT 2000 +TSRA BKN015CB
  • 181900Z AUTO 22013KT 9999 BKN042 BKN054 OVC072 08/04 Q1022 TEMPO 25025G40KT 2000 +TSRA BKN015CB
  • 181830Z AUTO 23012KT 9999 SCT038 BKN047 BKN056 09/04 Q1023 TEMPO 25025G40KT 2000 +TSRA BKN015CB
  • 181800Z AUTO 22010KT 9999 BKN041 BKN050 BKN062 08/04 Q1023 TEMPO 25025G40KT 2000 +TSRA BKN015CB

TAF TAF LFRG
Valide du 18 à 15h jusqu'au 19 à 00h UTC


181400Z 1815/1824 24015G25KT 9999 BKN025
TEMPO 1815/1818 4000 SHRA BKN015TCU
BECMG 1818/1821 25020G33KT
TEMPO 1818/1824 25025G40KT 3000 SHRA BKN015CB
PROB40
TEMPO 1819/1824 2000 +TSRA
ATIS : +33 2 31 65 65 36



MET'MAP, la Météo Aéronautique d'un coup d'oeil ! - Copyright ORBIFLY Décembre 2007 - Disclaimer

ORBIFLY MET'MAP TEAM :

Programmation & Développement : Alexandra Zaïnal
Sur une idée originale de : Baudouin d'Aumeries
Assistance à la programmation : Marc-Olivier Méhu
Soutien technique & logistique : Manuel Goepfert

Contact : metmap@orbifly.com




SOURCES & CREDITS :

   NOAA